sensor_id;sensor_type;location;lat;lon;timestamp;pressure;altitude;pressure_sealevel;temperature;humidity
11440;BME280;5776;51.814;4.510;2023-11-21T00:01:35;101139.00;;;8.33;100.00
11440;BME280;5776;51.814;4.510;2023-11-21T00:04:02;101134.38;;;8.34;100.00
11440;BME280;5776;51.814;4.510;2023-11-21T00:06:27;101135.19;;;8.34;100.00
11440;BME280;5776;51.814;4.510;2023-11-21T00:08:54;101143.31;;;8.34;100.00
11440;BME280;5776;51.814;4.510;2023-11-21T00:11:20;101142.25;;;8.35;100.00
11440;BME280;5776;51.814;4.510;2023-11-21T00:13:46;101140.34;;;8.36;100.00
11440;BME280;5776;51.814;4.510;2023-11-21T00:16:13;101144.97;;;8.35;100.00
11440;BME280;5776;51.814;4.510;2023-11-21T00:18:39;101142.25;;;8.35;100.00
11440;BME280;5776;51.814;4.510;2023-11-21T00:21:05;101142.25;;;8.35;100.00
11440;BME280;5776;51.814;4.510;2023-11-21T00:23:31;101137.91;;;8.34;100.00
11440;BME280;5776;51.814;4.510;2023-11-21T00:25:58;101143.31;;;8.34;100.00
11440;BME280;5776;51.814;4.510;2023-11-21T00:28:26;101144.97;;;8.35;100.00
11440;BME280;5776;51.814;4.510;2023-11-21T00:30:51;101143.06;;;8.36;100.00
11440;BME280;5776;51.814;4.510;2023-11-21T00:33:17;101143.88;;;8.36;100.00
11440;BME280;5776;51.814;4.510;2023-11-21T00:35:43;101133.03;;;8.36;100.00
11440;BME280;5776;51.814;4.510;2023-11-21T00:38:09;101136.56;;;8.37;100.00
11440;BME280;5776;51.814;4.510;2023-11-21T00:40:35;101135.50;;;8.38;100.00
11440;BME280;5776;51.814;4.510;2023-11-21T00:43:01;101152.53;;;8.38;100.00
11440;BME280;5776;51.814;4.510;2023-11-21T00:45:27;101148.78;;;8.39;100.00
11440;BME280;5776;51.814;4.510;2023-11-21T00:47:52;101145.81;;;8.41;100.00
11440;BME280;5776;51.814;4.510;2023-11-21T00:50:18;101152.84;;;8.42;100.00
11440;BME280;5776;51.814;4.510;2023-11-21T00:52:45;101156.34;;;8.42;100.00
11440;BME280;5776;51.814;4.510;2023-11-21T00:55:10;101155.53;;;8.42;100.00
11440;BME280;5776;51.814;4.510;2023-11-21T00:57:37;101151.78;;;8.43;100.00
11440;BME280;5776;51.814;4.510;2023-11-21T01:00:03;101155.53;;;8.42;100.00
11440;BME280;5776;51.814;4.510;2023-11-21T01:02:43;101158.00;;;8.43;100.00
11440;BME280;5776;51.814;4.510;2023-11-21T01:05:12;101156.91;;;8.44;100.00
11440;BME280;5776;51.814;4.510;2023-11-21T01:07:40;101155.00;;;8.45;100.00
11440;BME280;5776;51.814;4.510;2023-11-21T01:10:06;101162.88;;;8.47;100.00
11440;BME280;5776;51.814;4.510;2023-11-21T01:12:37;101167.19;;;8.48;100.00
11440;BME280;5776;51.814;4.510;2023-11-21T01:15:04;101167.19;;;8.48;100.00
11440;BME280;5776;51.814;4.510;2023-11-21T01:17:33;101166.38;;;8.47;100.00
11440;BME280;5776;51.814;4.510;2023-11-21T01:20:03;101162.88;;;8.47;100.00
11440;BME280;5776;51.814;4.510;2023-11-21T01:22:32;101164.78;;;8.46;100.00
11440;BME280;5776;51.814;4.510;2023-11-21T01:24:59;101169.09;;;8.47;100.00
11440;BME280;5776;51.814;4.510;2023-11-21T01:27:26;101181.00;;;8.46;100.00
11440;BME280;5776;51.814;4.510;2023-11-21T01:29:52;101179.38;;;8.45;100.00
11440;BME280;5776;51.814;4.510;2023-11-21T01:32:19;101183.44;;;8.48;100.00
11440;BME280;5776;51.814;4.510;2023-11-21T01:34:45;101195.09;;;8.48;100.00
11440;BME280;5776;51.814;4.510;2023-11-21T01:37:12;101191.56;;;8.48;100.00
11440;BME280;5776;51.814;4.510;2023-11-21T01:39:38;101201.31;;;8.49;100.00
11440;BME280;5776;51.814;4.510;2023-11-21T01:42:05;101193.19;;;8.49;100.00
11440;BME280;5776;51.814;4.510;2023-11-21T01:44:30;101203.78;;;8.50;100.00
11440;BME280;5776;51.814;4.510;2023-11-21T01:46:56;101207.28;;;8.51;100.00
11440;BME280;5776;51.814;4.510;2023-11-21T01:49:23;101214.31;;;8.52;100.00
11440;BME280;5776;51.814;4.510;2023-11-21T01:51:49;101208.91;;;8.52;100.00
11440;BME280;5776;51.814;4.510;2023-11-21T01:54:17;101210.56;;;8.53;100.00
11440;BME280;5776;51.814;4.510;2023-11-21T01:56:46;101213.25;;;8.53;100.00
11440;BME280;5776;51.814;4.510;2023-11-21T01:59:19;101218.69;;;8.53;100.00
11440;BME280;5776;51.814;4.510;2023-11-21T02:01:48;101225.72;;;8.54;100.00
11440;BME280;5776;51.814;4.510;2023-11-21T02:04:16;101220.28;;;8.54;100.00
11440;BME280;5776;51.814;4.510;2023-11-21T02:06:41;101224.63;;;8.55;100.00
11440;BME280;5776;51.814;4.510;2023-11-21T02:09:07;101229.22;;;8.54;100.00
11440;BME280;5776;51.814;4.510;2023-11-21T02:11:34;101228.97;;;8.56;100.00
11440;BME280;5776;51.814;4.510;2023-11-21T02:14:01;101226.25;;;8.56;100.00
11440;BME280;5776;51.814;4.510;2023-11-21T02:16:27;101230.59;;;8.57;100.00
11440;BME280;5776;51.814;4.510;2023-11-21T02:18:53;101228.69;;;8.57;100.00
11440;BME280;5776;51.814;4.510;2023-11-21T02:21:19;101229.53;;;8.58;100.00
11440;BME280;5776;51.814;4.510;2023-11-21T02:23:45;101232.22;;;8.58;100.00
11440;BME280;5776;51.814;4.510;2023-11-21T02:26:13;101238.47;;;8.58;100.00
11440;BME280;5776;51.814;4.510;2023-11-21T02:28:40;101230.34;;;8.58;100.00
11440;BME280;5776;51.814;4.510;2023-11-21T02:31:06;101229.25;;;8.59;100.00
11440;BME280;5776;51.814;4.510;2023-11-21T02:33:33;101231.41;;;8.57;100.00
11440;BME280;5776;51.814;4.510;2023-11-21T02:36:00;101226.53;;;8.59;100.00
11440;BME280;5776;51.814;4.510;2023-11-21T02:38:26;101229.53;;;8.58;100.00
11440;BME280;5776;51.814;4.510;2023-11-21T02:40:52;101233.03;;;8.58;100.00
11440;BME280;5776;51.814;4.510;2023-11-21T02:43:19;101237.38;;;8.59;100.00
11440;BME280;5776;51.814;4.510;2023-11-21T02:45:44;101240.88;;;8.60;100.00
11440;BME280;5776;51.814;4.510;2023-11-21T02:48:10;101238.19;;;8.60;100.00
11440;BME280;5776;51.814;4.510;2023-11-21T02:50:37;101244.44;;;8.60;100.00
11440;BME280;5776;51.814;4.510;2023-11-21T02:53:04;101246.28;;;8.60;100.00
11440;BME280;5776;51.814;4.510;2023-11-21T02:55:31;101238.19;;;8.60;100.00
11440;BME280;5776;51.814;4.510;2023-11-21T02:58:00;101239.81;;;8.61;100.00
11440;BME280;5776;51.814;4.510;2023-11-21T03:00:26;101241.97;;;8.59;100.00
11440;BME280;5776;51.814;4.510;2023-11-21T03:02:54;101244.69;;;8.59;100.00
11440;BME280;5776;51.814;4.510;2023-11-21T03:05:21;101243.59;;;8.60;100.00
11440;BME280;5776;51.814;4.510;2023-11-21T03:07:46;101241.97;;;8.59;100.00
11440;BME280;5776;51.814;4.510;2023-11-21T03:10:12;101243.88;;;8.58;100.00
11440;BME280;5776;51.814;4.510;2023-11-21T03:12:39;101246.28;;;8.60;100.00
11440;BME280;5776;51.814;4.510;2023-11-21T03:15:08;101241.97;;;8.59;100.00
11440;BME280;5776;51.814;4.510;2023-11-21T03:17:34;101243.59;;;8.60;100.00
11440;BME280;5776;51.814;4.510;2023-11-21T03:20:00;101255.78;;;8.62;100.00
11440;BME280;5776;51.814;4.510;2023-11-21T03:22:26;101253.91;;;8.63;100.00
11440;BME280;5776;51.814;4.510;2023-11-21T03:24:52;101244.16;;;8.62;100.00
11440;BME280;5776;51.814;4.510;2023-11-21T03:27:18;101246.84;;;8.62;100.00
11440;BME280;5776;51.814;4.510;2023-11-21T03:29:44;101256.63;;;8.63;100.00
11440;BME280;5776;51.814;4.510;2023-11-21T03:32:12;101260.13;;;8.63;100.00
11440;BME280;5776;51.814;4.510;2023-11-21T03:34:57;101260.38;;;8.62;100.00
11440;BME280;5776;51.814;4.510;2023-11-21T03:37:23;101266.63;;;8.62;100.00
11440;BME280;5776;51.814;4.510;2023-11-21T03:39:50;101270.97;;;8.63;100.00
11440;BME280;5776;51.814;4.510;2023-11-21T03:42:16;101267.16;;;8.64;100.00
11440;BME280;5776;51.814;4.510;2023-11-21T03:44:43;101278.00;;;8.64;100.00
11440;BME280;5776;51.814;4.510;2023-11-21T03:47:10;101276.09;;;8.65;100.00
11440;BME280;5776;51.814;4.510;2023-11-21T03:49:37;101291.28;;;8.66;100.00
11440;BME280;5776;51.814;4.510;2023-11-21T03:52:03;101280.47;;;8.66;100.00
11440;BME280;5776;51.814;4.510;2023-11-21T03:54:29;101288.59;;;8.66;100.00
11440;BME280;5776;51.814;4.510;2023-11-21T03:56:55;101293.19;;;8.65;100.00
11440;BME280;5776;51.814;4.510;2023-11-21T03:59:21;101298.31;;;8.67;100.00
11440;BME280;5776;51.814;4.510;2023-11-21T04:01:50;101291.84;;;8.68;100.00
11440;BME280;5776;51.814;4.510;2023-11-21T04:04:16;101295.34;;;8.69;100.00
11440;BME280;5776;51.814;4.510;2023-11-21T04:06:42;101298.88;;;8.69;100.00
11440;BME280;5776;51.814;4.510;2023-11-21T04:09:07;101302.41;;;8.70;100.00
11440;BME280;5776;51.814;4.510;2023-11-21T04:11:34;101303.19;;;8.70;100.00
11440;BME280;5776;51.814;4.510;2023-11-21T04:14:00;101310.25;;;8.71;100.00
11440;BME280;5776;51.814;4.510;2023-11-21T04:16:26;101311.06;;;8.72;100.00
11440;BME280;5776;51.814;4.510;2023-11-21T04:18:52;101315.41;;;8.73;100.00
11440;BME280;5776;51.814;4.510;2023-11-21T04:21:19;101316.50;;;8.72;100.00
11440;BME280;5776;51.814;4.510;2023-11-21T04:23:45;101313.53;;;8.73;100.00
11440;BME280;5776;51.814;4.510;2023-11-21T04:26:11;101312.69;;;8.73;100.00
11440;BME280;5776;51.814;4.510;2023-11-21T04:28:37;101320.56;;;8.74;100.00
11440;BME280;5776;51.814;4.510;2023-11-21T04:31:04;101334.09;;;8.74;100.00
11440;BME280;5776;51.814;4.510;2023-11-21T04:33:31;101330.59;;;8.74;100.00
11440;BME280;5776;51.814;4.510;2023-11-21T04:35:57;101330.34;;;8.75;100.00
11440;BME280;5776;51.814;4.510;2023-11-21T04:38:23;101339.28;;;8.76;100.00
11440;BME280;5776;51.814;4.510;2023-11-21T04:40:48;101334.66;;;8.76;100.00
11440;BME280;5776;51.814;4.510;2023-11-21T04:43:14;101336.56;;;8.76;100.00
11440;BME280;5776;51.814;4.510;2023-11-21T04:45:40;101340.88;;;8.77;100.00
11440;BME280;5776;51.814;4.510;2023-11-21T04:48:07;101342.78;;;8.76;100.00
11440;BME280;5776;51.814;4.510;2023-11-21T04:50:34;101344.97;;;8.79;100.00
11440;BME280;5776;51.814;4.510;2023-11-21T04:53:00;101343.34;;;8.78;100.00
11440;BME280;5776;51.814;4.510;2023-11-21T04:55:26;101346.06;;;8.78;100.00
11440;BME280;5776;51.814;4.510;2023-11-21T04:57:54;101351.47;;;8.78;100.00
11440;BME280;5776;51.814;4.510;2023-11-21T05:00:21;101361.22;;;8.79;100.00
11440;BME280;5776;51.814;4.510;2023-11-21T05:02:47;101356.59;;;8.80;100.00
11440;BME280;5776;51.814;4.510;2023-11-21T05:05:12;101366.63;;;8.79;100.00
11440;BME280;5776;51.814;4.510;2023-11-21T05:07:40;101380.16;;;8.79;100.00
11440;BME280;5776;51.814;4.510;2023-11-21T05:10:07;101371.78;;;8.81;100.00
11440;BME280;5776;51.814;4.510;2023-11-21T05:12:36;101368.28;;;8.80;100.00
11440;BME280;5776;51.814;4.510;2023-11-21T05:15:05;101365.56;;;8.80;100.00
11440;BME280;5776;51.814;4.510;2023-11-21T05:17:38;101372.03;;;8.79;100.00
11440;BME280;5776;51.814;4.510;2023-11-21T05:20:08;101375.56;;;8.80;100.00
11440;BME280;5776;51.814;4.510;2023-11-21T05:22:35;101380.97;;;8.80;100.00
11440;BME280;5776;51.814;4.510;2023-11-21T05:25:02;101391.00;;;8.79;100.00
11440;BME280;5776;51.814;4.510;2023-11-21T05:27:33;101391.00;;;8.79;100.00
11440;BME280;5776;51.814;4.510;2023-11-21T05:30:01;101394.25;;;8.76;100.00
11440;BME280;5776;51.814;4.510;2023-11-21T05:32:28;101392.66;;;8.80;100.00
11440;BME280;5776;51.814;4.510;2023-11-21T05:34:54;101398.06;;;8.80;100.00
11440;BME280;5776;51.814;4.510;2023-11-21T05:37:20;101400.78;;;8.80;100.00
11440;BME280;5776;51.814;4.510;2023-11-21T05:39:46;101406.19;;;8.80;100.00
11440;BME280;5776;51.814;4.510;2023-11-21T05:42:12;101402.41;;;8.81;100.00
11440;BME280;5776;51.814;4.510;2023-11-21T05:44:41;101410.28;;;8.83;100.00
11440;BME280;5776;51.814;4.510;2023-11-21T05:47:07;101407.81;;;8.81;100.00
11440;BME280;5776;51.814;4.510;2023-11-21T05:49:34;101422.44;;;8.80;100.00
11440;BME280;5776;51.814;4.510;2023-11-21T05:52:00;101418.41;;;8.83;100.00
11440;BME280;5776;51.814;4.510;2023-11-21T05:54:26;101411.09;;;8.83;100.00
11440;BME280;5776;51.814;4.510;2023-11-21T05:56:52;101415.41;;;8.84;100.00
11440;BME280;5776;51.814;4.510;2023-11-21T05:59:18;101427.34;;;8.83;100.00
11440;BME280;5776;51.814;4.510;2023-11-21T06:01:45;101429.47;;;8.81;100.00
11440;BME280;5776;51.814;4.510;2023-11-21T06:04:11;101438.16;;;8.83;100.00
11440;BME280;5776;51.814;4.510;2023-11-21T06:06:38;101430.84;;;8.84;100.00
11440;BME280;5776;51.814;4.510;2023-11-21T06:09:04;101449.56;;;8.85;100.00
11440;BME280;5776;51.814;4.510;2023-11-21T06:11:31;101447.34;;;8.82;100.00
11440;BME280;5776;51.814;4.510;2023-11-21T06:13:57;101444.94;;;8.81;100.00
11440;BME280;5776;51.814;4.510;2023-11-21T06:16:24;101454.94;;;8.80;100.00
11440;BME280;5776;51.814;4.510;2023-11-21T06:18:50;101459.81;;;8.78;100.00
11440;BME280;5776;51.814;4.510;2023-11-21T06:21:17;101451.94;;;8.77;100.00
11440;BME280;5776;51.814;4.510;2023-11-21T06:23:43;101466.81;;;8.74;100.00
11440;BME280;5776;51.814;4.510;2023-11-21T06:26:09;101468.97;;;8.72;100.00
11440;BME280;5776;51.814;4.510;2023-11-21T06:28:35;101471.41;;;8.74;100.00
11440;BME280;5776;51.814;4.510;2023-11-21T06:31:02;101467.06;;;8.73;100.00
11440;BME280;5776;51.814;4.510;2023-11-21T06:33:34;101478.72;;;8.73;100.00
11440;BME280;5776;51.814;4.510;2023-11-21T06:36:00;101470.59;;;8.73;100.00
11440;BME280;5776;51.814;4.510;2023-11-21T06:38:29;101484.09;;;8.68;100.00
11440;BME280;5776;51.814;4.510;2023-11-21T06:40:58;101486.25;;;8.66;100.00
11440;BME280;5776;51.814;4.510;2023-11-21T06:43:24;101483.28;;;8.68;100.00
11440;BME280;5776;51.814;4.510;2023-11-21T06:45:51;101494.41;;;8.71;100.00
11440;BME280;5776;51.814;4.510;2023-11-21T06:48:18;101495.22;;;8.72;100.00
11440;BME280;5776;51.814;4.510;2023-11-21T06:50:44;101499.31;;;8.74;100.00
11440;BME280;5776;51.814;4.510;2023-11-21T06:53:10;101501.78;;;8.76;100.00
11440;BME280;5776;51.814;4.510;2023-11-21T06:55:36;101498.78;;;8.77;100.00
11440;BME280;5776;51.814;4.510;2023-11-21T06:58:02;101496.63;;;8.79;100.00
11440;BME280;5776;51.814;4.510;2023-11-21T07:00:29;101502.06;;;8.79;100.00
11440;BME280;5776;51.814;4.510;2023-11-21T07:02:55;101504.19;;;8.77;100.00
11440;BME280;5776;51.814;4.510;2023-11-21T07:05:21;101498.19;;;8.70;100.00
11440;BME280;5776;51.814;4.510;2023-11-21T07:07:48;101516.59;;;8.68;100.00
11440;BME280;5776;51.814;4.510;2023-11-21T07:10:15;101506.28;;;8.65;100.00
11440;BME280;5776;51.814;4.510;2023-11-21T07:12:41;101522.53;;;8.65;100.00
11440;BME280;5776;51.814;4.510;2023-11-21T07:15:08;101516.84;;;8.67;100.00
11440;BME280;5776;51.814;4.510;2023-11-21T07:17:35;101526.59;;;8.68;100.00
11440;BME280;5776;51.814;4.510;2023-11-21T07:20:01;101527.41;;;8.63;100.00
11440;BME280;5776;51.814;4.510;2023-11-21T07:22:28;101537.66;;;8.61;100.00
11440;BME280;5776;51.814;4.510;2023-11-21T07:24:55;101536.00;;;8.60;100.00
11440;BME280;5776;51.814;4.510;2023-11-21T07:27:22;101546.31;;;8.58;100.00
11440;BME280;5776;51.814;4.510;2023-11-21T07:29:48;101552.25;;;8.60;100.00
11440;BME280;5776;51.814;4.510;2023-11-21T07:32:15;101560.38;;;8.60;100.00
11440;BME280;5776;51.814;4.510;2023-11-21T07:34:41;101562.28;;;8.59;100.00
11440;BME280;5776;51.814;4.510;2023-11-21T07:37:07;101561.47;;;8.59;100.00
11440;BME280;5776;51.814;4.510;2023-11-21T07:39:35;101570.69;;;8.58;100.00
11440;BME280;5776;51.814;4.510;2023-11-21T07:42:03;101566.94;;;8.64;100.00
11440;BME280;5776;51.814;4.510;2023-11-21T07:44:30;101575.56;;;8.61;100.00
11440;BME280;5776;51.814;4.510;2023-11-21T07:46:57;101575.06;;;8.64;100.00
11440;BME280;5776;51.814;4.510;2023-11-21T07:49:24;101582.41;;;8.69;100.00
11440;BME280;5776;51.814;4.510;2023-11-21T07:51:50;101584.34;;;8.73;100.00
11440;BME280;5776;51.814;4.510;2023-11-21T07:54:16;101582.22;;;8.75;100.00
11440;BME280;5776;51.814;4.510;2023-11-21T07:56:42;101582.69;;;8.72;100.00
11440;BME280;5776;51.814;4.510;2023-11-21T07:59:07;101594.09;;;8.74;100.00
11440;BME280;5776;51.814;4.510;2023-11-21T08:01:34;101594.09;;;8.74;100.00
11440;BME280;5776;51.814;4.510;2023-11-21T08:04:00;101605.50;;;8.76;100.00
11440;BME280;5776;51.814;4.510;2023-11-21T08:06:30;101608.81;;;8.83;100.00
11440;BME280;5776;51.814;4.510;2023-11-21T08:08:56;101611.56;;;8.89;100.00
11440;BME280;5776;51.814;4.510;2023-11-21T08:11:22;101611.00;;;8.86;100.00
11440;BME280;5776;51.814;4.510;2023-11-21T08:13:48;101616.22;;;8.93;100.00
11440;BME280;5776;51.814;4.510;2023-11-21T08:16:15;101624.88;;;8.95;100.00
11440;BME280;5776;51.814;4.510;2023-11-21T08:18:42;101629.44;;;8.90;100.00
11440;BME280;5776;51.814;4.510;2023-11-21T08:21:08;101633.84;;;8.96;100.00
11440;BME280;5776;51.814;4.510;2023-11-21T08:23:34;101641.97;;;8.96;100.00
11440;BME280;5776;51.814;4.510;2023-11-21T08:26:00;101642.78;;;8.96;100.00
11440;BME280;5776;51.814;4.510;2023-11-21T08:28:26;101632.00;;;9.01;100.00
11440;BME280;5776;51.814;4.510;2023-11-21T08:30:52;101635.53;;;9.02;100.00
11440;BME280;5776;51.814;4.510;2023-11-21T08:33:20;101634.72;;;9.01;100.00
11440;BME280;5776;51.814;4.510;2023-11-21T08:35:46;101635.00;;;9.05;100.00
11440;BME280;5776;51.814;4.510;2023-11-21T08:38:12;101635.53;;;9.02;100.00
11440;BME280;5776;51.814;4.510;2023-11-21T08:40:38;101639.59;;;9.04;100.00
11440;BME280;5776;51.814;4.510;2023-11-21T08:43:04;101642.13;;;9.11;100.00
11440;BME280;5776;51.814;4.510;2023-11-21T08:45:34;101644.81;;;9.11;100.00
11440;BME280;5776;51.814;4.510;2023-11-21T08:48:01;101657.28;;;9.12;100.00
11440;BME280;5776;51.814;4.510;2023-11-21T08:50:26;101645.38;;;9.13;100.00
11440;BME280;5776;51.814;4.510;2023-11-21T08:52:52;101650.84;;;9.18;100.00
11440;BME280;5776;51.814;4.510;2023-11-21T08:55:18;101654.38;;;9.19;100.00
11440;BME280;5776;51.814;4.510;2023-11-21T08:57:45;101652.47;;;9.19;100.00
11440;BME280;5776;51.814;4.510;2023-11-21T09:00:14;101656.56;;;9.22;100.00
11440;BME280;5776;51.814;4.510;2023-11-21T09:02:43;101651.44;;;9.25;100.00
11440;BME280;5776;51.814;4.510;2023-11-21T09:05:12;101654.69;;;9.27;100.00
11440;BME280;5776;51.814;4.510;2023-11-21T09:07:40;101668.78;;;9.24;100.00
11440;BME280;5776;51.814;4.510;2023-11-21T09:10:08;101668.81;;;9.29;100.00
11440;BME280;5776;51.814;4.510;2023-11-21T09:12:36;101677.50;;;9.32;100.00
11440;BME280;5776;51.814;4.510;2023-11-21T09:15:06;101670.75;;;9.34;100.00
11440;BME280;5776;51.814;4.510;2023-11-21T09:17:33;101676.16;;;9.34;100.00
11440;BME280;5776;51.814;4.510;2023-11-21T09:20:00;101677.03;;;9.40;100.00
11440;BME280;5776;51.814;4.510;2023-11-21T09:22:26;101680.59;;;9.45;100.00
11440;BME280;5776;51.814;4.510;2023-11-21T09:24:55;101684.13;;;9.46;100.00
11440;BME280;5776;51.814;4.510;2023-11-21T09:27:24;101687.13;;;9.49;100.00
11440;BME280;5776;51.814;4.510;2023-11-21T09:29:51;101695.03;;;9.51;100.00
11440;BME280;5776;51.814;4.510;2023-11-21T09:32:18;101697.78;;;9.56;100.00
11440;BME280;5776;51.814;4.510;2023-11-21T09:34:44;101705.91;;;9.56;100.00
11440;BME280;5776;51.814;4.510;2023-11-21T09:37:12;101709.72;;;9.60;100.00
11440;BME280;5776;51.814;4.510;2023-11-21T09:39:37;101716.47;;;9.58;100.00
11440;BME280;5776;51.814;4.510;2023-11-21T09:42:11;101720.03;;;9.58;100.00
11440;BME280;5776;51.814;4.510;2023-11-21T09:44:51;101726.81;;;9.61;100.00
11440;BME280;5776;51.814;4.510;2023-11-21T09:47:17;101734.97;;;9.61;100.00
11440;BME280;5776;51.814;4.510;2023-11-21T09:49:47;101737.41;;;9.62;100.00
11440;BME280;5776;51.814;4.510;2023-11-21T09:52:22;101740.66;;;9.64;100.00
11440;BME280;5776;51.814;4.510;2023-11-21T09:54:52;101736.06;;;9.65;100.00
11440;BME280;5776;51.814;4.510;2023-11-21T09:57:24;101748.81;;;9.64;100.00
11440;BME280;5776;51.814;4.510;2023-11-21T09:59:53;101747.72;;;9.65;100.00
11440;BME280;5776;51.814;4.510;2023-11-21T10:02:25;101761.28;;;9.65;100.00
11440;BME280;5776;51.814;4.510;2023-11-21T10:04:52;101754.78;;;9.66;100.00
11440;BME280;5776;51.814;4.510;2023-11-21T10:07:19;101763.50;;;9.68;100.00
11440;BME280;5776;51.814;4.510;2023-11-21T10:09:46;101774.88;;;9.70;100.00
11440;BME280;5776;51.814;4.510;2023-11-21T10:12:13;101782.22;;;9.70;100.00
11440;BME280;5776;51.814;4.510;2023-11-21T10:14:41;101782.22;;;9.70;100.00
11440;BME280;5776;51.814;4.510;2023-11-21T10:17:10;101780.88;;;9.72;100.00
11440;BME280;5776;51.814;4.510;2023-11-21T10:19:39;101791.72;;;9.72;100.00
11440;BME280;5776;51.814;4.510;2023-11-21T10:22:06;101799.88;;;9.72;100.00
11440;BME280;5776;51.814;4.510;2023-11-21T10:24:36;101805.84;;;9.74;100.00
11440;BME280;5776;51.814;4.510;2023-11-21T10:27:04;101795.00;;;9.74;100.00
11440;BME280;5776;51.814;4.510;2023-11-21T10:29:30;101807.50;;;9.76;100.00
11440;BME280;5776;51.814;4.510;2023-11-21T10:31:56;101800.44;;;9.74;100.00
11440;BME280;5776;51.814;4.510;2023-11-21T10:34:24;101812.94;;;9.76;100.00
11440;BME280;5776;51.814;4.510;2023-11-21T10:36:50;101815.66;;;9.76;100.00
11440;BME280;5776;51.814;4.510;2023-11-21T10:39:17;101824.59;;;9.76;100.00
11440;BME280;5776;51.814;4.510;2023-11-21T10:41:45;101816.47;;;9.76;100.00
11440;BME280;5776;51.814;4.510;2023-11-21T10:44:14;101819.16;;;9.76;100.00
11440;BME280;5776;51.814;4.510;2023-11-21T10:46:50;101823.78;;;9.76;100.00
11440;BME280;5776;51.814;4.510;2023-11-21T10:49:24;101832.97;;;9.74;100.00
11440;BME280;5776;51.814;4.510;2023-11-21T10:51:51;101832.97;;;9.74;100.00
11440;BME280;5776;51.814;4.510;2023-11-21T10:54:25;101845.50;;;9.76;100.00
11440;BME280;5776;51.814;4.510;2023-11-21T10:56:59;101846.88;;;9.78;100.00
11440;BME280;5776;51.814;4.510;2023-11-21T10:59:30;101849.25;;;9.74;100.00
11440;BME280;5776;51.814;4.510;2023-11-21T11:01:57;101860.13;;;9.74;100.00
11440;BME280;5776;51.814;4.510;2023-11-21T11:04:25;101857.41;;;9.74;100.00
11440;BME280;5776;51.814;4.510;2023-11-21T11:06:57;101861.75;;;9.76;100.00
11440;BME280;5776;51.814;4.510;2023-11-21T11:09:24;101858.22;;;9.75;100.00
11440;BME280;5776;51.814;4.510;2023-11-21T11:11:51;101862.56;;;9.76;100.00
11440;BME280;5776;51.814;4.510;2023-11-21T11:14:18;101860.91;;;9.75;100.00
11440;BME280;5776;51.814;4.510;2023-11-21T11:16:45;101862.81;;;9.74;100.00
11440;BME280;5776;51.814;4.510;2023-11-21T11:19:11;101862.81;;;9.74;100.00
11440;BME280;5776;51.814;4.510;2023-11-21T11:24:42;101863.63;;;9.75;100.00
11440;BME280;5776;51.814;4.510;2023-11-21T11:33:12;101859.06;;;9.76;100.00
11440;BME280;5776;51.814;4.510;2023-11-21T11:36:03;101861.50;;;9.77;100.00
11440;BME280;5776;51.814;4.510;2023-11-21T11:38:32;101860.91;;;9.75;100.00
11440;BME280;5776;51.814;4.510;2023-11-21T11:41:02;101872.63;;;9.76;100.00
11440;BME280;5776;51.814;4.510;2023-11-21T11:43:29;101868.00;;;9.76;100.00
11440;BME280;5776;51.814;4.510;2023-11-21T11:45:59;101863.38;;;9.77;100.00
11440;BME280;5776;51.814;4.510;2023-11-21T11:48:25;101868.81;;;9.77;100.00
11440;BME280;5776;51.814;4.510;2023-11-21T11:51:03;101887.56;;;9.78;100.00
11440;BME280;5776;51.814;4.510;2023-11-21T11:53:37;101875.06;;;9.77;100.00
11440;BME280;5776;51.814;4.510;2023-11-21T11:59:02;101886.72;;;9.78;100.00
11440;BME280;5776;51.814;4.510;2023-11-21T12:01:28;101885.66;;;9.79;100.00
11440;BME280;5776;51.814;4.510;2023-11-21T12:06:46;101894.63;;;9.79;100.00
11440;BME280;5776;51.814;4.510;2023-11-21T12:09:23;101895.44;;;9.80;100.00
11440;BME280;5776;51.814;4.510;2023-11-21T12:11:50;101898.72;;;9.82;100.00
11440;BME280;5776;51.814;4.510;2023-11-21T12:14:16;101907.94;;;9.81;100.00
11440;BME280;5776;51.814;4.510;2023-11-21T12:16:45;101905.47;;;9.79;100.00
11440;BME280;5776;51.814;4.510;2023-11-21T12:19:12;101907.09;;;9.80;100.00
11440;BME280;5776;51.814;4.510;2023-11-21T12:21:39;101914.19;;;9.81;100.00
11440;BME280;5776;51.814;4.510;2023-11-21T12:24:07;101918.50;;;9.82;100.00
11440;BME280;5776;51.814;4.510;2023-11-21T12:26:40;101911.72;;;9.80;100.00
11440;BME280;5776;51.814;4.510;2023-11-21T12:29:07;101920.72;;;9.85;100.00
11440;BME280;5776;51.814;4.510;2023-11-21T12:31:36;101914.47;;;9.85;100.00
11440;BME280;5776;51.814;4.510;2023-11-21T12:34:02;101913.66;;;9.84;100.00
11440;BME280;5776;51.814;4.510;2023-11-21T12:36:29;101915.56;;;9.84;100.00
11440;BME280;5776;51.814;4.510;2023-11-21T12:38:56;101925.31;;;9.85;100.00
11440;BME280;5776;51.814;4.510;2023-11-21T12:41:23;101931.56;;;9.85;100.00
11440;BME280;5776;51.814;4.510;2023-11-21T12:43:49;101925.31;;;9.85;100.00
11440;BME280;5776;51.814;4.510;2023-11-21T12:46:15;101932.41;;;9.86;100.00
11440;BME280;5776;51.814;4.510;2023-11-21T12:48:43;101930.50;;;9.86;100.00
11440;BME280;5776;51.814;4.510;2023-11-21T12:51:10;101932.41;;;9.86;100.00
11440;BME280;5776;51.814;4.510;2023-11-21T12:53:40;101937.00;;;9.85;100.00
11440;BME280;5776;51.814;4.510;2023-11-21T12:56:07;101943.50;;;9.84;100.00
11440;BME280;5776;51.814;4.510;2023-11-21T12:58:36;101945.41;;;9.84;100.00
11440;BME280;5776;51.814;4.510;2023-11-21T13:01:03;101943.50;;;9.84;100.00
11440;BME280;5776;51.814;4.510;2023-11-21T13:03:38;101948.13;;;9.84;100.00
11440;BME280;5776;51.814;4.510;2023-11-21T13:06:05;101952.72;;;9.83;100.00
11440;BME280;5776;51.814;4.510;2023-11-21T13:08:32;101953.53;;;9.84;100.00
11440;BME280;5776;51.814;4.510;2023-11-21T13:10:59;101946.47;;;9.83;100.00
11440;BME280;5776;51.814;4.510;2023-11-21T13:13:26;101947.31;;;9.83;100.00
11440;BME280;5776;51.814;4.510;2023-11-21T13:15:55;101955.44;;;9.83;100.00